sensor_id;sensor_type;location;lat;lon;timestamp;temperature;humidity
37412;DHT22;23278;52.110;6.050;2022-12-18T00:01:39;-3.00;99.90
37412;DHT22;23278;52.110;6.050;2022-12-18T00:04:06;-3.00;99.90
37412;DHT22;23278;52.110;6.050;2022-12-18T00:06:34;-2.90;99.90
37412;DHT22;23278;52.110;6.050;2022-12-18T00:09:01;-2.90;99.90
37412;DHT22;23278;52.110;6.050;2022-12-18T00:11:30;-2.90;99.90
37412;DHT22;23278;52.110;6.050;2022-12-18T00:13:58;-2.90;99.90
37412;DHT22;23278;52.110;6.050;2022-12-18T00:16:25;-2.90;99.90
37412;DHT22;23278;52.110;6.050;2022-12-18T00:18:55;-2.80;99.90
37412;DHT22;23278;52.110;6.050;2022-12-18T00:21:24;-2.80;99.90
37412;DHT22;23278;52.110;6.050;2022-12-18T00:23:51;-2.80;99.90
37412;DHT22;23278;52.110;6.050;2022-12-18T00:26:26;-2.70;99.90
37412;DHT22;23278;52.110;6.050;2022-12-18T00:29:07;-2.70;99.90
37412;DHT22;23278;52.110;6.050;2022-12-18T00:31:35;-2.80;99.90
37412;DHT22;23278;52.110;6.050;2022-12-18T00:34:02;-2.80;99.90
37412;DHT22;23278;52.110;6.050;2022-12-18T00:36:30;-2.90;99.90
37412;DHT22;23278;52.110;6.050;2022-12-18T00:38:57;-2.90;99.90
37412;DHT22;23278;52.110;6.050;2022-12-18T00:41:24;-3.00;99.90
37412;DHT22;23278;52.110;6.050;2022-12-18T00:44:11;-3.00;99.90
37412;DHT22;23278;52.110;6.050;2022-12-18T00:46:37;-3.10;99.90
37412;DHT22;23278;52.110;6.050;2022-12-18T00:49:04;-3.20;99.90
37412;DHT22;23278;52.110;6.050;2022-12-18T00:51:30;-3.20;99.90
37412;DHT22;23278;52.110;6.050;2022-12-18T00:53:56;-3.30;99.90
37412;DHT22;23278;52.110;6.050;2022-12-18T00:56:23;-3.40;99.90
37412;DHT22;23278;52.110;6.050;2022-12-18T00:58:49;-3.50;99.90
37412;DHT22;23278;52.110;6.050;2022-12-18T01:01:16;-3.60;99.90
37412;DHT22;23278;52.110;6.050;2022-12-18T01:03:42;-3.60;99.90
37412;DHT22;23278;52.110;6.050;2022-12-18T01:06:10;-3.70;99.90
37412;DHT22;23278;52.110;6.050;2022-12-18T01:08:37;-3.70;99.90
37412;DHT22;23278;52.110;6.050;2022-12-18T01:11:17;-3.80;99.90
37412;DHT22;23278;52.110;6.050;2022-12-18T01:13:44;-3.90;99.90
37412;DHT22;23278;52.110;6.050;2022-12-18T01:16:15;-3.90;99.90
37412;DHT22;23278;52.110;6.050;2022-12-18T01:18:42;-4.00;99.90
37412;DHT22;23278;52.110;6.050;2022-12-18T01:21:10;-4.00;99.90
37412;DHT22;23278;52.110;6.050;2022-12-18T01:23:37;-4.00;99.90
37412;DHT22;23278;52.110;6.050;2022-12-18T01:26:12;-4.10;99.90
37412;DHT22;23278;52.110;6.050;2022-12-18T01:28:39;-4.10;99.90
37412;DHT22;23278;52.110;6.050;2022-12-18T01:33:46;-4.20;99.90
37412;DHT22;23278;52.110;6.050;2022-12-18T01:36:26;-4.20;99.90
37412;DHT22;23278;52.110;6.050;2022-12-18T01:38:53;-4.20;99.90
37412;DHT22;23278;52.110;6.050;2022-12-18T01:41:26;-4.20;99.90
37412;DHT22;23278;52.110;6.050;2022-12-18T01:43:54;-4.30;99.90
37412;DHT22;23278;52.110;6.050;2022-12-18T01:46:25;-4.30;99.90
37412;DHT22;23278;52.110;6.050;2022-12-18T01:48:57;-4.30;99.90
37412;DHT22;23278;52.110;6.050;2022-12-18T01:51:23;-4.30;99.90
37412;DHT22;23278;52.110;6.050;2022-12-18T01:53:50;-4.40;99.90
37412;DHT22;23278;52.110;6.050;2022-12-18T01:56:18;-4.40;99.90
37412;DHT22;23278;52.110;6.050;2022-12-18T01:59:04;-4.40;99.90
37412;DHT22;23278;52.110;6.050;2022-12-18T02:01:32;-4.40;99.90
37412;DHT22;23278;52.110;6.050;2022-12-18T02:04:24;-4.40;99.90
37412;DHT22;23278;52.110;6.050;2022-12-18T02:06:59;-4.50;99.90
37412;DHT22;23278;52.110;6.050;2022-12-18T02:09:34;-4.50;99.90
37412;DHT22;23278;52.110;6.050;2022-12-18T02:12:17;-4.50;99.90
37412;DHT22;23278;52.110;6.050;2022-12-18T02:17:38;-4.50;99.90
37412;DHT22;23278;52.110;6.050;2022-12-18T02:20:18;-4.60;99.90
37412;DHT22;23278;52.110;6.050;2022-12-18T02:26:00;-4.60;99.90
37412;DHT22;23278;52.110;6.050;2022-12-18T02:28:32;-4.60;99.90
37412;DHT22;23278;52.110;6.050;2022-12-18T02:31:04;-4.60;99.90
37412;DHT22;23278;52.110;6.050;2022-12-18T02:33:33;-4.60;99.90
37412;DHT22;23278;52.110;6.050;2022-12-18T02:36:00;-4.60;99.90
37412;DHT22;23278;52.110;6.050;2022-12-18T02:38:29;-4.60;99.90
37412;DHT22;23278;52.110;6.050;2022-12-18T02:40:59;-4.60;99.90
37412;DHT22;23278;52.110;6.050;2022-12-18T02:43:26;-4.60;99.90
37412;DHT22;23278;52.110;6.050;2022-12-18T02:45:56;-4.70;99.90
37412;DHT22;23278;52.110;6.050;2022-12-18T02:48:28;-4.70;99.90
37412;DHT22;23278;52.110;6.050;2022-12-18T02:51:17;-4.70;99.90
37412;DHT22;23278;52.110;6.050;2022-12-18T02:54:00;-4.70;99.90
37412;DHT22;23278;52.110;6.050;2022-12-18T02:56:35;-4.70;99.90
37412;DHT22;23278;52.110;6.050;2022-12-18T02:59:17;-4.70;99.90
37412;DHT22;23278;52.110;6.050;2022-12-18T03:04:43;-4.70;99.90
37412;DHT22;23278;52.110;6.050;2022-12-18T03:07:21;-4.80;99.90
37412;DHT22;23278;52.110;6.050;2022-12-18T03:09:51;-4.80;99.90
37412;DHT22;23278;52.110;6.050;2022-12-18T03:12:32;-4.80;99.90
37412;DHT22;23278;52.110;6.050;2022-12-18T03:17:36;-4.80;99.90
37412;DHT22;23278;52.110;6.050;2022-12-18T03:20:12;-4.80;99.90
37412;DHT22;23278;52.110;6.050;2022-12-18T03:22:42;-4.80;99.90
37412;DHT22;23278;52.110;6.050;2022-12-18T03:25:11;-4.80;99.90
37412;DHT22;23278;52.110;6.050;2022-12-18T03:27:42;-4.80;99.90
37412;DHT22;23278;52.110;6.050;2022-12-18T03:30:13;-4.90;99.90
37412;DHT22;23278;52.110;6.050;2022-12-18T03:33:01;-4.90;99.90
37412;DHT22;23278;52.110;6.050;2022-12-18T03:35:33;-4.90;99.90
37412;DHT22;23278;52.110;6.050;2022-12-18T03:38:01;-5.00;99.90
37412;DHT22;23278;52.110;6.050;2022-12-18T03:40:35;-4.90;99.90
37412;DHT22;23278;52.110;6.050;2022-12-18T03:45:59;-4.90;99.90
37412;DHT22;23278;52.110;6.050;2022-12-18T03:48:38;-5.00;99.90
37412;DHT22;23278;52.110;6.050;2022-12-18T03:51:35;-5.00;99.90
37412;DHT22;23278;52.110;6.050;2022-12-18T03:54:04;-5.00;99.90
37412;DHT22;23278;52.110;6.050;2022-12-18T03:56:41;-5.00;99.90
37412;DHT22;23278;52.110;6.050;2022-12-18T03:59:09;-5.00;99.90
37412;DHT22;23278;52.110;6.050;2022-12-18T04:01:42;-5.00;99.90
37412;DHT22;23278;52.110;6.050;2022-12-18T04:04:13;-5.10;99.90
37412;DHT22;23278;52.110;6.050;2022-12-18T04:06:41;-5.00;99.90
37412;DHT22;23278;52.110;6.050;2022-12-18T04:09:09;-5.10;99.90
37412;DHT22;23278;52.110;6.050;2022-12-18T04:11:41;-5.00;99.90
37412;DHT22;23278;52.110;6.050;2022-12-18T04:14:10;-5.00;99.90
37412;DHT22;23278;52.110;6.050;2022-12-18T04:16:36;-5.00;99.90
37412;DHT22;23278;52.110;6.050;2022-12-18T04:19:04;-5.00;99.90
37412;DHT22;23278;52.110;6.050;2022-12-18T04:21:37;-5.00;99.90
37412;DHT22;23278;52.110;6.050;2022-12-18T04:24:03;-5.00;99.90
37412;DHT22;23278;52.110;6.050;2022-12-18T04:26:29;-5.00;99.90
37412;DHT22;23278;52.110;6.050;2022-12-18T04:29:16;-5.00;99.90
37412;DHT22;23278;52.110;6.050;2022-12-18T04:31:43;-5.00;99.90
37412;DHT22;23278;52.110;6.050;2022-12-18T04:34:09;-5.00;99.90
37412;DHT22;23278;52.110;6.050;2022-12-18T04:36:40;-5.00;99.90
37412;DHT22;23278;52.110;6.050;2022-12-18T04:39:07;-5.00;99.90
37412;DHT22;23278;52.110;6.050;2022-12-18T04:41:33;-5.10;99.90
37412;DHT22;23278;52.110;6.050;2022-12-18T04:43:59;-5.10;99.90
37412;DHT22;23278;52.110;6.050;2022-12-18T04:46:25;-5.10;99.90
37412;DHT22;23278;52.110;6.050;2022-12-18T04:48:51;-5.10;99.90
37412;DHT22;23278;52.110;6.050;2022-12-18T04:51:17;-5.10;99.90
37412;DHT22;23278;52.110;6.050;2022-12-18T04:53:43;-5.10;99.90
37412;DHT22;23278;52.110;6.050;2022-12-18T04:56:11;-5.10;99.90
37412;DHT22;23278;52.110;6.050;2022-12-18T04:58:39;-5.10;99.90
37412;DHT22;23278;52.110;6.050;2022-12-18T05:01:06;-5.10;99.90
37412;DHT22;23278;52.110;6.050;2022-12-18T05:03:36;-5.20;99.90
37412;DHT22;23278;52.110;6.050;2022-12-18T05:06:03;-5.20;99.90
37412;DHT22;23278;52.110;6.050;2022-12-18T05:08:29;-5.20;99.90
37412;DHT22;23278;52.110;6.050;2022-12-18T05:11:02;-5.20;99.90
37412;DHT22;23278;52.110;6.050;2022-12-18T05:13:28;-5.20;99.90
37412;DHT22;23278;52.110;6.050;2022-12-18T05:15:54;-5.20;99.90
37412;DHT22;23278;52.110;6.050;2022-12-18T05:18:22;-5.20;99.90
37412;DHT22;23278;52.110;6.050;2022-12-18T05:20:49;-5.20;99.90
37412;DHT22;23278;52.110;6.050;2022-12-18T05:23:16;-5.20;99.90
37412;DHT22;23278;52.110;6.050;2022-12-18T05:25:42;-5.30;99.90
37412;DHT22;23278;52.110;6.050;2022-12-18T05:28:08;-5.30;99.90
37412;DHT22;23278;52.110;6.050;2022-12-18T05:30:33;-5.30;99.90
37412;DHT22;23278;52.110;6.050;2022-12-18T05:32:59;-5.30;99.90
37412;DHT22;23278;52.110;6.050;2022-12-18T05:35:25;-5.30;99.90
37412;DHT22;23278;52.110;6.050;2022-12-18T05:37:51;-5.30;99.90
37412;DHT22;23278;52.110;6.050;2022-12-18T05:40:17;-5.40;99.90
37412;DHT22;23278;52.110;6.050;2022-12-18T05:42:43;-5.40;99.90
37412;DHT22;23278;52.110;6.050;2022-12-18T05:45:09;-5.40;99.90
37412;DHT22;23278;52.110;6.050;2022-12-18T05:47:35;-5.40;99.90
37412;DHT22;23278;52.110;6.050;2022-12-18T05:50:01;-5.50;99.90
37412;DHT22;23278;52.110;6.050;2022-12-18T05:52:26;-5.50;99.90
37412;DHT22;23278;52.110;6.050;2022-12-18T05:54:52;-5.50;99.90
37412;DHT22;23278;52.110;6.050;2022-12-18T05:57:18;-5.50;99.90
37412;DHT22;23278;52.110;6.050;2022-12-18T05:59:44;-5.50;99.90
37412;DHT22;23278;52.110;6.050;2022-12-18T06:02:10;-5.50;99.90
37412;DHT22;23278;52.110;6.050;2022-12-18T06:04:36;-5.50;99.90
37412;DHT22;23278;52.110;6.050;2022-12-18T06:07:03;-5.50;99.90
37412;DHT22;23278;52.110;6.050;2022-12-18T06:09:29;-5.50;99.90
37412;DHT22;23278;52.110;6.050;2022-12-18T06:11:55;-5.40;99.90
37412;DHT22;23278;52.110;6.050;2022-12-18T06:14:21;-5.40;99.90
37412;DHT22;23278;52.110;6.050;2022-12-18T06:16:47;-5.40;99.90
37412;DHT22;23278;52.110;6.050;2022-12-18T06:19:16;-5.40;99.90
37412;DHT22;23278;52.110;6.050;2022-12-18T06:21:42;-5.40;99.90
37412;DHT22;23278;52.110;6.050;2022-12-18T06:24:08;-5.40;99.90
37412;DHT22;23278;52.110;6.050;2022-12-18T06:26:37;-5.50;99.90
37412;DHT22;23278;52.110;6.050;2022-12-18T06:29:03;-5.50;99.90
37412;DHT22;23278;52.110;6.050;2022-12-18T06:31:29;-5.50;99.90
37412;DHT22;23278;52.110;6.050;2022-12-18T06:33:55;-5.50;99.90
37412;DHT22;23278;52.110;6.050;2022-12-18T06:36:21;-5.60;99.90
37412;DHT22;23278;52.110;6.050;2022-12-18T06:38:47;-5.60;99.90
37412;DHT22;23278;52.110;6.050;2022-12-18T06:41:15;-5.60;99.90
37412;DHT22;23278;52.110;6.050;2022-12-18T06:43:42;-5.70;99.90
37412;DHT22;23278;52.110;6.050;2022-12-18T06:46:08;-5.70;99.90
37412;DHT22;23278;52.110;6.050;2022-12-18T06:48:34;-5.70;99.90
37412;DHT22;23278;52.110;6.050;2022-12-18T06:51:01;-5.80;99.90
37412;DHT22;23278;52.110;6.050;2022-12-18T06:53:27;-5.80;99.90
37412;DHT22;23278;52.110;6.050;2022-12-18T06:56:03;-5.80;99.90
37412;DHT22;23278;52.110;6.050;2022-12-18T06:58:29;-5.80;99.90
37412;DHT22;23278;52.110;6.050;2022-12-18T07:01:00;-5.80;99.90
37412;DHT22;23278;52.110;6.050;2022-12-18T07:03:27;-5.80;99.90
37412;DHT22;23278;52.110;6.050;2022-12-18T07:05:52;-5.80;99.90
37412;DHT22;23278;52.110;6.050;2022-12-18T07:08:18;-5.80;99.90
37412;DHT22;23278;52.110;6.050;2022-12-18T07:10:44;-5.80;99.90
37412;DHT22;23278;52.110;6.050;2022-12-18T07:13:10;-5.80;99.90
37412;DHT22;23278;52.110;6.050;2022-12-18T07:15:36;-5.70;99.90
37412;DHT22;23278;52.110;6.050;2022-12-18T07:18:02;-5.70;99.90
37412;DHT22;23278;52.110;6.050;2022-12-18T07:20:28;-5.70;99.90
37412;DHT22;23278;52.110;6.050;2022-12-18T07:22:54;-5.70;99.90
37412;DHT22;23278;52.110;6.050;2022-12-18T07:25:20;-5.70;99.90
37412;DHT22;23278;52.110;6.050;2022-12-18T07:27:46;-5.70;99.90
37412;DHT22;23278;52.110;6.050;2022-12-18T07:30:12;-5.60;99.90
37412;DHT22;23278;52.110;6.050;2022-12-18T07:32:38;-5.60;99.90
37412;DHT22;23278;52.110;6.050;2022-12-18T07:35:04;-5.60;99.90
37412;DHT22;23278;52.110;6.050;2022-12-18T07:37:30;-5.60;99.90
37412;DHT22;23278;52.110;6.050;2022-12-18T07:39:56;-5.60;99.90
37412;DHT22;23278;52.110;6.050;2022-12-18T07:42:22;-5.60;99.90
37412;DHT22;23278;52.110;6.050;2022-12-18T07:44:58;-5.60;99.90
37412;DHT22;23278;52.110;6.050;2022-12-18T07:47:24;-5.60;99.90
37412;DHT22;23278;52.110;6.050;2022-12-18T07:49:50;-5.60;99.90
37412;DHT22;23278;52.110;6.050;2022-12-18T07:52:16;-5.50;99.90
37412;DHT22;23278;52.110;6.050;2022-12-18T07:54:41;-5.50;99.90
37412;DHT22;23278;52.110;6.050;2022-12-18T07:57:08;-5.50;99.90
37412;DHT22;23278;52.110;6.050;2022-12-18T07:59:34;-5.40;99.90
37412;DHT22;23278;52.110;6.050;2022-12-18T08:02:00;-5.30;99.90
37412;DHT22;23278;52.110;6.050;2022-12-18T08:04:26;-5.30;99.90
37412;DHT22;23278;52.110;6.050;2022-12-18T08:06:52;-5.20;99.90
37412;DHT22;23278;52.110;6.050;2022-12-18T08:09:18;-5.20;99.90
37412;DHT22;23278;52.110;6.050;2022-12-18T08:11:44;-5.10;99.90
37412;DHT22;23278;52.110;6.050;2022-12-18T08:14:10;-5.10;99.90
37412;DHT22;23278;52.110;6.050;2022-12-18T08:16:36;-5.00;99.90
37412;DHT22;23278;52.110;6.050;2022-12-18T08:19:02;-4.90;99.90
37412;DHT22;23278;52.110;6.050;2022-12-18T08:21:30;-4.80;99.90
37412;DHT22;23278;52.110;6.050;2022-12-18T08:23:59;-4.70;99.90
37412;DHT22;23278;52.110;6.050;2022-12-18T08:26:27;-4.50;99.90
37412;DHT22;23278;52.110;6.050;2022-12-18T08:28:55;-4.30;99.90
37412;DHT22;23278;52.110;6.050;2022-12-18T08:31:22;-4.00;99.90
37412;DHT22;23278;52.110;6.050;2022-12-18T08:33:49;-3.60;99.90
37412;DHT22;23278;52.110;6.050;2022-12-18T08:36:16;-3.40;99.90
37412;DHT22;23278;52.110;6.050;2022-12-18T08:38:42;-3.20;99.90
37412;DHT22;23278;52.110;6.050;2022-12-18T08:41:13;-3.20;99.90
37412;DHT22;23278;52.110;6.050;2022-12-18T08:43:39;-3.00;99.90
37412;DHT22;23278;52.110;6.050;2022-12-18T08:46:25;-2.80;99.90
37412;DHT22;23278;52.110;6.050;2022-12-18T08:48:52;-2.70;99.90
37412;DHT22;23278;52.110;6.050;2022-12-18T08:51:19;-2.60;99.90
37412;DHT22;23278;52.110;6.050;2022-12-18T08:53:45;-2.50;99.90
37412;DHT22;23278;52.110;6.050;2022-12-18T08:56:12;-2.40;99.90
37412;DHT22;23278;52.110;6.050;2022-12-18T08:58:38;-2.40;99.90
37412;DHT22;23278;52.110;6.050;2022-12-18T09:01:06;-2.40;99.90
37412;DHT22;23278;52.110;6.050;2022-12-18T09:03:33;-2.40;99.90
37412;DHT22;23278;52.110;6.050;2022-12-18T09:05:59;-2.40;99.90
37412;DHT22;23278;52.110;6.050;2022-12-18T09:08:25;-2.40;99.90
37412;DHT22;23278;52.110;6.050;2022-12-18T09:10:51;-2.40;99.90
37412;DHT22;23278;52.110;6.050;2022-12-18T09:13:18;-2.40;99.90
37412;DHT22;23278;52.110;6.050;2022-12-18T09:15:49;-2.30;99.90
37412;DHT22;23278;52.110;6.050;2022-12-18T09:18:17;-2.10;99.90
37412;DHT22;23278;52.110;6.050;2022-12-18T09:20:43;-1.80;99.90
37412;DHT22;23278;52.110;6.050;2022-12-18T09:23:10;-1.50;99.90
37412;DHT22;23278;52.110;6.050;2022-12-18T09:25:37;-1.20;99.90
37412;DHT22;23278;52.110;6.050;2022-12-18T09:28:05;-1.00;99.90
37412;DHT22;23278;52.110;6.050;2022-12-18T09:30:31;-0.80;99.90
37412;DHT22;23278;52.110;6.050;2022-12-18T09:33:00;-0.70;99.90
37412;DHT22;23278;52.110;6.050;2022-12-18T09:35:27;-0.60;99.50
37412;DHT22;23278;52.110;6.050;2022-12-18T09:37:53;-0.50;99.20
37412;DHT22;23278;52.110;6.050;2022-12-18T09:40:23;-0.30;99.00
37412;DHT22;23278;52.110;6.050;2022-12-18T09:43:00;-0.20;98.70
37412;DHT22;23278;52.110;6.050;2022-12-18T09:45:31;-0.10;98.40
37412;DHT22;23278;52.110;6.050;2022-12-18T09:48:01;-0.10;98.10
37412;DHT22;23278;52.110;6.050;2022-12-18T09:50:39;-0.10;98.00
37412;DHT22;23278;52.110;6.050;2022-12-18T09:53:12;0.00;97.90
37412;DHT22;23278;52.110;6.050;2022-12-18T09:55:43;0.00;97.70
37412;DHT22;23278;52.110;6.050;2022-12-18T10:00:36;0.10;97.50
37412;DHT22;23278;52.110;6.050;2022-12-18T10:03:13;0.10;97.40
37412;DHT22;23278;52.110;6.050;2022-12-18T10:11:11;0.00;96.70
37412;DHT22;23278;52.110;6.050;2022-12-18T10:13:49;0.00;96.60
37412;DHT22;23278;52.110;6.050;2022-12-18T10:21:41;0.10;96.70
37412;DHT22;23278;52.110;6.050;2022-12-18T10:26:55;0.30;96.60
37412;DHT22;23278;52.110;6.050;2022-12-18T10:29:25;0.40;96.60
37412;DHT22;23278;52.110;6.050;2022-12-18T10:31:51;0.50;96.50
37412;DHT22;23278;52.110;6.050;2022-12-18T10:34:16;0.60;96.20
37412;DHT22;23278;52.110;6.050;2022-12-18T10:36:42;0.60;96.20
37412;DHT22;23278;52.110;6.050;2022-12-18T10:39:20;0.70;96.20
37412;DHT22;23278;52.110;6.050;2022-12-18T10:41:48;0.90;96.00
37412;DHT22;23278;52.110;6.050;2022-12-18T10:44:35;0.90;95.90
37412;DHT22;23278;52.110;6.050;2022-12-18T10:47:09;0.90;95.50
37412;DHT22;23278;52.110;6.050;2022-12-18T10:49:49;0.90;95.30
37412;DHT22;23278;52.110;6.050;2022-12-18T10:52:21;0.90;95.20
37412;DHT22;23278;52.110;6.050;2022-12-18T10:54:55;1.00;95.10
37412;DHT22;23278;52.110;6.050;2022-12-18T10:57:38;0.90;94.70
37412;DHT22;23278;52.110;6.050;2022-12-18T11:00:24;0.90;94.80
37412;DHT22;23278;52.110;6.050;2022-12-18T11:02:50;1.00;95.00
37412;DHT22;23278;52.110;6.050;2022-12-18T11:05:26;1.00;94.60
37412;DHT22;23278;52.110;6.050;2022-12-18T11:07:53;1.00;94.80
37412;DHT22;23278;52.110;6.050;2022-12-18T11:10:30;1.00;94.50
37412;DHT22;23278;52.110;6.050;2022-12-18T11:15:40;1.10;94.30
37412;DHT22;23278;52.110;6.050;2022-12-18T11:18:17;1.10;94.20
37412;DHT22;23278;52.110;6.050;2022-12-18T11:20:50;1.10;94.00
37412;DHT22;23278;52.110;6.050;2022-12-18T11:23:19;1.10;94.00
37412;DHT22;23278;52.110;6.050;2022-12-18T11:25:59;1.20;94.00
37412;DHT22;23278;52.110;6.050;2022-12-18T11:31:25;1.20;93.90
37412;DHT22;23278;52.110;6.050;2022-12-18T11:34:02;1.30;93.80
37412;DHT22;23278;52.110;6.050;2022-12-18T11:36:34;1.30;93.60
37412;DHT22;23278;52.110;6.050;2022-12-18T11:39:10;1.30;93.40
37412;DHT22;23278;52.110;6.050;2022-12-18T11:43:02;1.30;93.30
37412;DHT22;23278;52.110;6.050;2022-12-18T11:45:38;1.30;93.40
37412;DHT22;23278;52.110;6.050;2022-12-18T11:48:27;1.40;93.30
37412;DHT22;23278;52.110;6.050;2022-12-18T11:50:56;1.30;93.30
37412;DHT22;23278;52.110;6.050;2022-12-18T11:53:24;1.40;93.40
37412;DHT22;23278;52.110;6.050;2022-12-18T12:07:09;1.60;93.00
37412;DHT22;23278;52.110;6.050;2022-12-18T12:09:43;1.70;92.90
37412;DHT22;23278;52.110;6.050;2022-12-18T12:12:27;1.70;92.90
37412;DHT22;23278;52.110;6.050;2022-12-18T12:18:15;1.80;92.50
37412;DHT22;23278;52.110;6.050;2022-12-18T12:21:04;1.80;92.40
37412;DHT22;23278;52.110;6.050;2022-12-18T12:35:42;1.90;92.20
37412;DHT22;23278;52.110;6.050;2022-12-18T12:40:15;1.90;91.90
37412;DHT22;23278;52.110;6.050;2022-12-18T12:42:46;2.00;92.10
37412;DHT22;23278;52.110;6.050;2022-12-18T12:45:54;1.90;91.90
37412;DHT22;23278;52.110;6.050;2022-12-18T12:50:50;2.00;91.80
37412;DHT22;23278;52.110;6.050;2022-12-18T12:53:25;2.00;91.80
37412;DHT22;23278;52.110;6.050;2022-12-18T12:55:52;2.00;91.90
37412;DHT22;23278;52.110;6.050;2022-12-18T12:58:34;2.00;91.80
37412;DHT22;23278;52.110;6.050;2022-12-18T13:04:14;2.10;91.80
37412;DHT22;23278;52.110;6.050;2022-12-18T13:09:18;2.10;91.40
37412;DHT22;23278;52.110;6.050;2022-12-18T13:11:45;2.00;91.40
37412;DHT22;23278;52.110;6.050;2022-12-18T13:14:38;2.00;91.40
37412;DHT22;23278;52.110;6.050;2022-12-18T13:20:11;2.00;91.20
37412;DHT22;23278;52.110;6.050;2022-12-18T13:22:46;2.00;91.20
37412;DHT22;23278;52.110;6.050;2022-12-18T13:25:31;2.00;91.10
37412;DHT22;23278;52.110;6.050;2022-12-18T13:28:15;2.00;90.90
37412;DHT22;23278;52.110;6.050;2022-12-18T13:30:45;2.00;90.90
37412;DHT22;23278;52.110;6.050;2022-12-18T13:38:42;2.00;90.60
37412;DHT22;23278;52.110;6.050;2022-12-18T13:43:45;2.00;90.70
37412;DHT22;23278;52.110;6.050;2022-12-18T13:46:42;2.00;90.60
37412;DHT22;23278;52.110;6.050;2022-12-18T13:51:43;2.00;90.50
37412;DHT22;23278;52.110;6.050;2022-12-18T13:54:37;2.00;90.50
37412;DHT22;23278;52.110;6.050;2022-12-18T13:57:12;2.10;90.60
37412;DHT22;23278;52.110;6.050;2022-12-18T13:59:51;2.00;90.40
37412;DHT22;23278;52.110;6.050;2022-12-18T14:02:22;2.00;90.40
37412;DHT22;23278;52.110;6.050;2022-12-18T14:04:49;2.10;90.50
37412;DHT22;23278;52.110;6.050;2022-12-18T14:07:23;2.10;90.60
37412;DHT22;23278;52.110;6.050;2022-12-18T14:09:52;2.00;90.50
37412;DHT22;23278;52.110;6.050;2022-12-18T14:12:25;2.10;90.40
37412;DHT22;23278;52.110;6.050;2022-12-18T14:20:18;2.00;90.60
37412;DHT22;23278;52.110;6.050;2022-12-18T14:22:46;2.00;90.50
37412;DHT22;23278;52.110;6.050;2022-12-18T14:27:46;2.00;90.60
37412;DHT22;23278;52.110;6.050;2022-12-18T14:30:35;2.00;90.60
37412;DHT22;23278;52.110;6.050;2022-12-18T14:33:02;2.10;90.70
37412;DHT22;23278;52.110;6.050;2022-12-18T14:35:28;2.00;90.60
37412;DHT22;23278;52.110;6.050;2022-12-18T14:38:09;2.00;90.60
37412;DHT22;23278;52.110;6.050;2022-12-18T14:40:35;2.00;90.70
37412;DHT22;23278;52.110;6.050;2022-12-18T14:43:02;2.00;90.70
37412;DHT22;23278;52.110;6.050;2022-12-18T14:45:35;2.00;90.80
37412;DHT22;23278;52.110;6.050;2022-12-18T14:48:09;2.00;90.70
37412;DHT22;23278;52.110;6.050;2022-12-18T14:50:35;2.00;90.70
37412;DHT22;23278;52.110;6.050;2022-12-18T14:53:01;2.00;90.80
37412;DHT22;23278;52.110;6.050;2022-12-18T14:55:27;2.00;90.80
37412;DHT22;23278;52.110;6.050;2022-12-18T14:57:54;2.00;90.70
37412;DHT22;23278;52.110;6.050;2022-12-18T15:00:23;2.00;90.70
37412;DHT22;23278;52.110;6.050;2022-12-18T15:02:55;2.00;90.70
37412;DHT22;23278;52.110;6.050;2022-12-18T15:05:29;2.00;90.70
37412;DHT22;23278;52.110;6.050;2022-12-18T15:07:58;2.00;90.80
37412;DHT22;23278;52.110;6.050;2022-12-18T15:10:32;2.00;90.80
37412;DHT22;23278;52.110;6.050;2022-12-18T15:21:07;2.00;90.70
37412;DHT22;23278;52.110;6.050;2022-12-18T15:23:48;2.00;90.80
37412;DHT22;23278;52.110;6.050;2022-12-18T15:26:17;2.00;90.80
37412;DHT22;23278;52.110;6.050;2022-12-18T15:28:51;2.00;90.80
37412;DHT22;23278;52.110;6.050;2022-12-18T15:31:22;2.00;90.80
37412;DHT22;23278;52.110;6.050;2022-12-18T15:36:19;2.00;90.80
37412;DHT22;23278;52.110;6.050;2022-12-18T15:38:49;2.00;90.80
37412;DHT22;23278;52.110;6.050;2022-12-18T15:41:19;2.00;90.90
37412;DHT22;23278;52.110;6.050;2022-12-18T15:43:47;2.00;90.90
37412;DHT22;23278;52.110;6.050;2022-12-18T15:46:19;2.00;90.90
37412;DHT22;23278;52.110;6.050;2022-12-18T15:48:56;2.00;90.90
37412;DHT22;23278;52.110;6.050;2022-12-18T15:51:32;2.00;90.90
37412;DHT22;23278;52.110;6.050;2022-12-18T15:54:03;2.00;91.00
37412;DHT22;23278;52.110;6.050;2022-12-18T15:56:30;2.00;90.90
37412;DHT22;23278;52.110;6.050;2022-12-18T15:59:18;2.00;90.90
37412;DHT22;23278;52.110;6.050;2022-12-18T16:01:49;2.00;90.90
37412;DHT22;23278;52.110;6.050;2022-12-18T16:04:18;2.10;91.00
37412;DHT22;23278;52.110;6.050;2022-12-18T16:06:46;2.10;91.00
37412;DHT22;23278;52.110;6.050;2022-12-18T16:09:12;2.00;91.00
37412;DHT22;23278;52.110;6.050;2022-12-18T16:11:41;2.10;91.00
37412;DHT22;23278;52.110;6.050;2022-12-18T16:14:25;2.10;91.00
37412;DHT22;23278;52.110;6.050;2022-12-18T16:17:00;2.10;91.00
37412;DHT22;23278;52.110;6.050;2022-12-18T16:19:27;2.10;90.80
37412;DHT22;23278;52.110;6.050;2022-12-18T16:21:55;2.00;90.70
37412;DHT22;23278;52.110;6.050;2022-12-18T16:24:30;2.00;90.70
37412;DHT22;23278;52.110;6.050;2022-12-18T16:26:57;2.10;90.50
37412;DHT22;23278;52.110;6.050;2022-12-18T16:29:25;2.00;90.30
37412;DHT22;23278;52.110;6.050;2022-12-18T16:31:57;2.00;90.20
37412;DHT22;23278;52.110;6.050;2022-12-18T16:34:29;2.10;90.10
37412;DHT22;23278;52.110;6.050;2022-12-18T16:36:57;2.10;89.90
37412;DHT22;23278;52.110;6.050;2022-12-18T16:39:24;2.10;89.60
37412;DHT22;23278;52.110;6.050;2022-12-18T16:41:50;2.10;88.70
37412;DHT22;23278;52.110;6.050;2022-12-18T16:44:17;2.00;88.10
37412;DHT22;23278;52.110;6.050;2022-12-18T16:46:43;2.10;88.00
37412;DHT22;23278;52.110;6.050;2022-12-18T16:49:14;2.00;87.70
37412;DHT22;23278;52.110;6.050;2022-12-18T16:51:40;2.00;87.10
37412;DHT22;23278;52.110;6.050;2022-12-18T16:54:06;2.00;87.20
37412;DHT22;23278;52.110;6.050;2022-12-18T16:56:32;2.00;87.10
37412;DHT22;23278;52.110;6.050;2022-12-18T16:59:00;2.00;87.00
37412;DHT22;23278;52.110;6.050;2022-12-18T17:01:28;2.00;86.70
37412;DHT22;23278;52.110;6.050;2022-12-18T17:04:05;2.00;86.40
37412;DHT22;23278;52.110;6.050;2022-12-18T17:06:39;1.90;86.20
37412;DHT22;23278;52.110;6.050;2022-12-18T17:09:07;1.90;86.10
37412;DHT22;23278;52.110;6.050;2022-12-18T17:11:34;1.90;85.90
37412;DHT22;23278;52.110;6.050;2022-12-18T17:14:18;1.90;85.90
37412;DHT22;23278;52.110;6.050;2022-12-18T17:16:45;1.80;86.00
37412;DHT22;23278;52.110;6.050;2022-12-18T17:19:12;1.90;86.00
37412;DHT22;23278;52.110;6.050;2022-12-18T17:21:38;1.90;85.90
37412;DHT22;23278;52.110;6.050;2022-12-18T17:24:05;1.80;85.90
37412;DHT22;23278;52.110;6.050;2022-12-18T17:26:31;1.80;86.10
37412;DHT22;23278;52.110;6.050;2022-12-18T17:28:57;1.90;86.30
37412;DHT22;23278;52.110;6.050;2022-12-18T17:31:25;1.90;86.50
37412;DHT22;23278;52.110;6.050;2022-12-18T17:33:52;1.90;86.50
37412;DHT22;23278;52.110;6.050;2022-12-18T17:36:19;1.90;86.80
37412;DHT22;23278;52.110;6.050;2022-12-18T17:38:56;1.90;86.80
37412;DHT22;23278;52.110;6.050;2022-12-18T17:41:23;1.90;86.90
37412;DHT22;23278;52.110;6.050;2022-12-18T17:43:50;1.90;86.90
37412;DHT22;23278;52.110;6.050;2022-12-18T17:46:16;1.80;86.90